Bondurant, Iowa
Current Conditions -  °F | °C
As of 9:15 PM on Sunday 21 Dec 2014 (Local Time) from KIKV Reporting Station
Overcast Overcast  
Wind Chill: 38°   Ceiling: 1100
Heat Index: 43°   Visibility: 10mi
Dew Point: 39°   Wind: 8mph
Humidity: 87%   Direction: 160°SSE
Pressure: 29.77"   Gusts: 15mph
Location:  41.7°N, 93.46°W
Report Text: KIKV 220315Z AUTO 16007G13KT 10SM OVC011 06/04 A2977 RMK AO2
Loading
Personal Weather Stations






























Interactive Weather Map New forecast layout! Learn more

10-Day Weather Forecast

Advertisements
Track Severe Weather on mobile